Time;durP1;ratioP1;P1;durP2;ratioP2;P2;SDS_P1;SDS_P2;PMS_P1;PMS_P2;Temp;Humidity;BMP_temperature;BMP_pressure;BME280_temperature;BME280_humidity;BME280_pressure;Samples;Min_cycle;Max_cycle;Signal;HPM_P1;HPM_P2
2022/10/07 00:01:57;;;;;;;7.10;1.30;;;9.70;99.90;;;;;;5042803;28;20029;-67
2022/10/07 00:04:23;;;;;;;3.25;1.27;;;9.70;99.90;;;;;;5010181;28;20146;-66
2022/10/07 00:06:49;;;;;;;1.42;0.85;;;9.80;99.90;;;;;;5043115;28;20097;-66
2022/10/07 00:09:15;;;;;;;1.65;0.88;;;9.50;99.90;;;;;;5042764;28;20037;-66
2022/10/07 00:11:41;;;;;;;1.83;1.05;;;9.60;99.90;;;;;;5042652;28;20080;-66
2022/10/07 00:14:08;;;;;;;1.23;0.63;;;9.50;99.90;;;;;;5010607;28;20092;-66
2022/10/07 00:16:39;;;;;;;5.70;1.73;;;9.40;99.90;;;;;;5042615;28;20022;-67
2022/10/07 00:19:11;;;;;;;2.80;1.27;;;9.30;99.90;;;;;;5045752;28;20671;-66
2022/10/07 00:21:37;;;;;;;;;;;9.30;99.90;;;;;;5030119;28;20026;-66
2022/10/07 00:24:05;;;;;;;6.40;1.40;;;9.40;99.90;;;;;;5030360;28;20481;-66
2022/10/07 00:26:34;;;;;;;4.35;1.30;;;9.60;99.90;;;;;;5029435;28;20138;-66
2022/10/07 00:29:00;;;;;;;3.00;1.10;;;9.40;99.90;;;;;;5029299;28;20381;-66
2022/10/07 00:31:31;;;;;;;4.30;1.63;;;9.30;99.90;;;;;;5030344;28;20022;-66
2022/10/07 00:33:58;;;;;;;1.27;0.87;;;9.10;99.90;;;;;;5030696;28;20041;-66
2022/10/07 00:36:30;;;;;;;3.05;1.35;;;9.20;99.90;;;;;;5030398;28;20126;-66
2022/10/07 00:39:04;;;;;;;3.67;2.00;;;9.20;99.90;;;;;;5029309;28;20029;-66
2022/10/07 00:41:40;;;;;;;1.85;1.38;;;9.20;99.90;;;;;;5030390;28;20492;-66
2022/10/07 00:44:30;;;;;;;1.77;1.10;;;9.30;99.90;;;;;;5029149;28;20116;-67
2022/10/07 00:47:26;;;;;;;2.88;1.15;;;9.30;99.90;;;;;;5030260;28;20037;-68
2022/10/07 00:50:13;;;;;;;3.35;1.65;;;9.30;99.90;;;;;;5030564;28;20124;-67
2022/10/07 00:52:49;;;;;;;2.78;1.33;;;9.30;99.90;;;;;;5028755;28;20432;-66
2022/10/07 00:55:20;;;;;;;8.30;1.65;;;9.30;99.90;;;;;;5029382;28;20572;-67
2022/10/07 00:57:47;;;;;;;3.13;1.40;;;9.40;99.90;;;;;;5029271;28;20033;-67
2022/10/07 01:00:14;;;;;;;2.92;1.80;;;9.20;99.90;;;;;;5029698;28;20022;-67
2022/10/07 01:02:40;;;;;;;2.25;1.52;;;9.20;99.90;;;;;;5028518;28;20037;-66
2022/10/07 01:05:08;;;;;;;9.00;2.00;;;9.20;99.90;;;;;;5029701;28;20064;-67
2022/10/07 01:07:35;;;;;;;5.75;1.17;;;9.30;99.90;;;;;;5034821;28;20036;-66
2022/10/07 01:10:04;;;;;;;8.20;1.15;;;9.30;99.90;;;;;;5033859;28;20382;-67
2022/10/07 01:12:51;;;;;;;3.53;1.42;;;9.30;99.90;;;;;;5029031;28;20025;-67
2022/10/07 01:15:41;;;;;;;1.98;1.10;;;9.30;99.90;;;;;;5037985;28;20026;-67
2022/10/07 01:18:48;;;;;;;1.38;0.82;;;9.20;99.90;;;;;;5012682;28;20034;-67
2022/10/07 01:21:45;;;;;;;5.20;1.70;;;9.20;99.90;;;;;;5012257;28;20136;-67
2022/10/07 01:24:39;;;;;;;8.43;1.45;;;9.30;99.90;;;;;;5030667;28;20044;-67
2022/10/07 01:27:16;;;;;;;1.55;1.00;;;9.20;99.90;;;;;;5052358;28;20049;-66
2022/10/07 01:30:00;;;;;;;9.77;1.67;;;9.30;99.90;;;;;;5035658;28;20029;-67
2022/10/07 01:32:35;;;;;;;6.78;1.05;;;9.40;99.90;;;;;;5051615;28;20392;-67
2022/10/07 01:35:06;;;;;;;3.08;1.02;;;9.50;99.90;;;;;;5051874;28;20572;-67
2022/10/07 01:37:39;;;;;;;9.73;1.98;;;9.60;99.90;;;;;;5051848;28;20161;-67
2022/10/07 01:40:16;;;;;;;9.40;1.23;;;9.70;99.90;;;;;;5052090;28;20122;-66
2022/10/07 01:42:43;;;;;;;1.33;0.82;;;9.70;99.90;;;;;;5011891;28;20053;-67
2022/10/07 01:45:13;;;;;;;2.50;1.05;;;9.70;99.90;;;;;;5013446;28;20053;-67
2022/10/07 01:47:39;;;;;;;1.67;0.95;;;9.70;99.90;;;;;;5012066;28;20172;-67
2022/10/07 01:50:12;;;;;;;3.22;1.27;;;9.70;99.90;;;;;;5012104;28;20080;-67
2022/10/07 01:53:11;;;;;;;12.40;2.13;;;9.70;99.90;;;;;;5012847;28;20500;-67
2022/10/07 01:55:44;;;;;;;1.63;1.40;;;9.70;99.90;;;;;;5012448;28;20092;-67
2022/10/07 01:58:26;;;;;;;3.88;1.30;;;9.60;99.90;;;;;;5013095;28;20060;-67
2022/10/07 02:01:14;;;;;;;4.28;1.30;;;9.60;99.90;;;;;;5011813;28;20501;-67
2022/10/07 02:04:02;;;;;;;4.18;2.15;;;9.60;99.90;;;;;;5012709;28;20052;-67
2022/10/07 02:07:06;;;;;;;3.45;1.40;;;9.60;99.90;;;;;;5011816;28;20034;-67
2022/10/07 02:10:01;;;;;;;2.17;1.05;;;9.60;99.90;;;;;;5012873;28;20033;-67
2022/10/07 02:12:53;;;;;;;3.83;1.90;;;9.50;99.90;;;;;;5011242;28;20029;-67
2022/10/07 02:15:28;;;;;;;7.43;1.63;;;9.40;99.90;;;;;;5030238;28;20036;-67
2022/10/07 02:18:04;;;;;;;3.30;1.50;;;9.40;99.90;;;;;;5051022;28;20027;-67
2022/10/07 02:20:34;;;;;;;2.35;1.00;;;9.40;99.90;;;;;;5051194;28;20025;-67
2022/10/07 02:23:03;;;;;;;3.95;1.90;;;9.40;99.90;;;;;;5050772;28;20027;-67
2022/10/07 02:25:40;;;;;;;3.70;1.50;;;9.40;99.90;;;;;;5051217;28;20035;-67
2022/10/07 02:28:10;;;;;;;2.55;0.90;;;9.30;99.90;;;;;;5052195;28;20033;-67
2022/10/07 02:30:39;;;;;;;3.10;1.80;;;9.20;99.90;;;;;;5051275;28;20029;-67
2022/10/07 02:33:07;;;;;;;3.70;1.75;;;9.20;99.90;;;;;;5050379;28;20490;-67
2022/10/07 02:35:51;;;;;;;9.88;1.45;;;9.10;99.90;;;;;;5050917;28;20472;-67
2022/10/07 02:38:17;;;;;;;2.67;1.40;;;9.00;99.90;;;;;;5050705;28;20036;-67
2022/10/07 02:41:30;;;;;;;2.95;1.27;;;8.90;99.90;;;;;;5050847;28;20480;-67
2022/10/07 02:44:31;;;;;;;2.40;2.00;;;8.90;99.90;;;;;;5030866;28;20132;-67
2022/10/07 02:47:04;;;;;;;;;;;8.90;99.90;;;;;;5052254;28;20033;-67
2022/10/07 02:49:32;;;;;;;1.42;0.98;;;8.80;99.90;;;;;;5051795;28;19982;-67
2022/10/07 02:52:04;;;;;;;2.90;2.30;;;8.70;99.90;;;;;;5034220;28;20076;-67
2022/10/07 02:54:48;;;;;;;5.93;2.53;;;8.80;99.90;;;;;;5050355;28;20122;-69
2022/10/07 02:57:18;;;;;;;4.00;1.10;;;8.80;99.90;;;;;;5050565;28;20108;-67
2022/10/07 02:59:47;;;;;;;1.65;1.20;;;8.80;99.90;;;;;;5050425;28;20416;-67
2022/10/07 03:02:22;;;;;;;3.15;1.20;;;8.80;99.90;;;;;;5050156;28;20033;-67
2022/10/07 03:04:48;;;;;;;4.85;0.60;;;8.80;99.90;;;;;;5034103;28;20036;-67
2022/10/07 03:07:15;;;;;;;2.90;1.40;;;8.70;99.90;;;;;;5051321;28;20037;-67
2022/10/07 03:09:42;;;;;;;7.82;1.50;;;8.60;99.90;;;;;;5051649;28;20044;-67
2022/10/07 03:12:07;;;;;;;2.42;1.48;;;8.50;99.90;;;;;;5050065;28;20036;-67
2022/10/07 03:14:34;;;;;;;2.10;1.38;;;8.50;99.90;;;;;;5047247;28;20029;-67
2022/10/07 03:17:01;;;;;;;4.00;1.45;;;8.50;99.90;;;;;;5031540;28;20025;-67
2022/10/07 03:19:26;;;;;;;7.97;1.30;;;8.60;99.90;;;;;;5031346;28;20022;-67
2022/10/07 03:21:55;;;;;;;3.45;1.73;;;8.60;99.90;;;;;;5030106;28;20488;-67
2022/10/07 03:24:21;;;;;;;2.67;1.23;;;8.50;99.90;;;;;;4997918;28;20473;-67
2022/10/07 03:26:47;;;;;;;5.25;1.83;;;8.50;99.90;;;;;;5029694;28;20037;-68
2022/10/07 03:29:13;;;;;;;2.50;1.25;;;8.50;99.90;;;;;;5031115;28;20037;-67
2022/10/07 03:31:41;;;;;;;4.90;1.42;;;8.40;99.90;;;;;;5029968;28;20489;-67
2022/10/07 03:34:08;;;;;;;8.80;2.95;;;8.30;99.90;;;;;;5030330;28;20040;-67
2022/10/07 03:36:34;;;;;;;2.42;1.52;;;8.30;99.90;;;;;;5031349;28;20036;-67
2022/10/07 03:39:00;;;;;;;4.07;1.90;;;8.30;99.90;;;;;;5030509;28;20025;-66
2022/10/07 03:41:25;;;;;;;2.47;1.60;;;8.30;99.90;;;;;;5030963;28;20025;-66
2022/10/07 03:43:51;;;;;;;6.78;1.58;;;8.20;99.90;;;;;;5030775;28;20120;-67
2022/10/07 03:46:18;;;;;;;2.90;1.65;;;8.30;99.90;;;;;;5029285;28;20112;-67
2022/10/07 03:48:45;;;;;;;2.55;0.93;;;8.30;99.90;;;;;;5030856;28;20029;-67
2022/10/07 03:51:10;;;;;;;2.63;1.67;;;8.30;99.90;;;;;;5030914;28;20033;-66
2022/10/07 03:53:39;;;;;;;1.08;0.88;;;8.40;99.90;;;;;;5030400;28;20036;-67
2022/10/07 03:56:05;;;;;;;12.27;1.88;;;8.40;99.90;;;;;;5029454;28;20394;-67
2022/10/07 03:58:31;;;;;;;6.07;1.83;;;8.40;99.90;;;;;;5022739;28;20062;-67
2022/10/07 04:01:04;;;;;;;1.80;0.93;;;8.50;99.90;;;;;;5027827;28;20065;-67
2022/10/07 04:03:30;;;;;;;9.68;3.47;;;8.50;99.90;;;;;;5030233;28;20034;-67
2022/10/07 04:05:59;;;;;;;3.13;1.02;;;8.50;99.90;;;;;;5030064;28;20037;-67
2022/10/07 04:08:28;;;;;;;8.95;2.75;;;8.50;99.90;;;;;;5015697;28;20485;-67
2022/10/07 04:10:56;;;;;;;7.35;1.85;;;8.50;99.90;;;;;;5009506;28;20038;-66
2022/10/07 04:13:22;;;;;;;8.02;3.58;;;8.50;99.90;;;;;;5010317;28;20037;-66
2022/10/07 04:15:48;;;;;;;3.83;1.35;;;8.40;99.90;;;;;;5036111;28;20036;-67
2022/10/07 04:18:15;;;;;;;1.92;1.05;;;8.40;99.90;;;;;;5050126;28;20515;-67
2022/10/07 04:20:40;;;;;;;2.00;1.13;;;8.40;99.90;;;;;;5032433;28;20041;-66
2022/10/07 04:23:06;;;;;;;3.63;1.70;;;8.30;99.90;;;;;;5050050;28;20082;-67
2022/10/07 04:25:32;;;;;;;6.53;1.45;;;8.30;99.90;;;;;;5049183;28;20477;-66
2022/10/07 04:28:00;;;;;;;6.93;2.13;;;8.20;99.90;;;;;;5044513;28;20026;-67
2022/10/07 04:30:32;;;;;;;3.30;1.33;;;8.20;99.90;;;;;;5010705;28;20033;-67
2022/10/07 04:32:57;;;;;;;;;;;8.30;99.90;;;;;;5009670;28;20022;-66
2022/10/07 04:35:23;;;;;;;3.28;1.35;;;8.20;99.90;;;;;;5009136;28;19951;-66
2022/10/07 04:37:52;;;;;;;3.05;1.48;;;8.20;99.90;;;;;;5009567;28;20121;-66
2022/10/07 04:40:20;;;;;;;1.75;1.23;;;8.20;99.90;;;;;;5009234;28;20057;-67
2022/10/07 04:45:33;;;;;;;4.03;1.35;;;8.20;99.90;;;;;;5010192;28;20025;-66
2022/10/07 04:48:00;;;;;;;2.60;0.80;;;8.20;99.90;;;;;;4982726;28;20118;-67
2022/10/07 04:50:26;;;;;;;11.73;2.53;;;8.10;99.90;;;;;;5005334;28;20066;-67
2022/10/07 04:52:52;;;;;;;3.95;1.35;;;8.10;99.90;;;;;;4994198;28;20065;-66
2022/10/07 04:55:18;;;;;;;1.85;1.58;;;8.10;99.90;;;;;;4992955;28;20040;-67
2022/10/07 04:58:02;;;;;;;5.22;1.73;;;8.10;99.90;;;;;;4993080;28;20124;-66
2022/10/07 05:00:27;;;;;;;2.58;1.50;;;8.10;99.90;;;;;;4993281;28;20093;-68
2022/10/07 05:02:54;;;;;;;13.82;5.10;;;8.10;99.90;;;;;;4993871;28;20410;-68
2022/10/07 05:05:19;;;;;;;6.97;1.70;;;8.10;99.90;;;;;;4994280;28;20046;-68
2022/10/07 05:07:52;;;;;;;1.38;1.00;;;8.00;99.90;;;;;;4992804;28;20035;-67
2022/10/07 05:10:18;;;;;;;7.07;1.25;;;7.90;99.90;;;;;;4992788;28;20598;-67
2022/10/07 05:12:44;;;;;;;3.25;1.30;;;8.00;99.90;;;;;;4993590;28;20140;-67
2022/10/07 05:15:10;;;;;;;19.92;10.38;;;8.00;99.90;;;;;;5008910;28;20026;-67
2022/10/07 05:17:37;;;;;;;6.03;3.65;;;7.90;99.90;;;;;;5013793;28;20478;-68
2022/10/07 05:20:03;;;;;;;2.10;1.27;;;7.90;99.90;;;;;;4976577;28;20037;-67
2022/10/07 05:22:30;;;;;;;12.38;1.38;;;8.00;99.90;;;;;;4993712;28;20128;-68
2022/10/07 05:24:56;;;;;;;2.40;1.67;;;7.90;99.90;;;;;;4992734;28;20034;-68
2022/10/07 05:27:22;;;;;;;8.95;1.50;;;7.90;99.90;;;;;;4992734;28;20101;-68
2022/10/07 05:29:48;;;;;;;3.60;1.92;;;8.00;99.90;;;;;;5011321;28;20034;-67
2022/10/07 05:32:14;;;;;;;1.30;0.90;;;8.10;99.90;;;;;;5028250;28;20087;-67
2022/10/07 05:34:40;;;;;;;3.38;1.13;;;8.00;99.90;;;;;;5004749;28;20070;-66
2022/10/07 05:37:06;;;;;;;3.85;1.50;;;8.10;99.90;;;;;;4991356;28;20485;-67
2022/10/07 05:39:32;;;;;;;2.95;1.67;;;8.10;99.90;;;;;;5008316;28;20100;-70
2022/10/07 05:41:58;;;;;;;3.58;1.15;;;8.20;99.90;;;;;;5012817;28;20057;-67
2022/10/07 05:44:24;;;;;;;4.68;1.77;;;8.20;99.90;;;;;;5011275;28;21679;-67
2022/10/07 05:46:50;;;;;;;4.70;1.85;;;8.30;99.90;;;;;;5012739;28;20030;-66
2022/10/07 05:49:15;;;;;;;6.60;2.35;;;8.30;99.90;;;;;;5013036;28;20034;-68
2022/10/07 05:51:41;;;;;;;6.35;1.60;;;8.30;99.90;;;;;;5012986;28;20030;-67
2022/10/07 05:54:07;;;;;;;10.43;1.92;;;8.30;99.90;;;;;;5012329;28;20062;-68
2022/10/07 05:56:33;;;;;;;8.55;3.65;;;8.20;99.90;;;;;;5012941;28;20105;-67
2022/10/07 05:58:59;;;;;;;4.78;1.52;;;8.20;99.90;;;;;;5010199;28;20064;-66
2022/10/07 06:01:26;;;;;;;52.15;18.77;;;8.30;99.90;;;;;;5012143;28;20062;-67
2022/10/07 06:03:56;;;;;;;5.40;1.90;;;8.30;99.90;;;;;;5012479;28;20030;-67
2022/10/07 06:06:23;;;;;;;9.02;1.40;;;8.30;99.90;;;;;;5012535;28;20390;-67
2022/10/07 06:08:50;;;;;;;15.27;1.92;;;8.30;99.90;;;;;;5012523;28;20046;-67
2022/10/07 06:14:04;;;;;;;4.50;1.70;;;8.40;99.90;;;;;;5024750;28;20644;-67
2022/10/07 06:16:30;;;;;;;5.07;1.60;;;8.40;99.90;;;;;;5012289;28;20044;-67
2022/10/07 06:18:56;;;;;;;3.85;1.45;;;8.40;99.90;;;;;;5012192;28;20029;-67
2022/10/07 06:21:26;;;;;;;8.48;1.88;;;8.30;99.90;;;;;;5011842;28;20371;-67
2022/10/07 06:23:53;;;;;;;9.90;1.55;;;8.30;99.90;;;;;;5011829;28;20040;-68
2022/10/07 06:26:21;;;;;;;3.30;1.85;;;8.20;99.90;;;;;;5011931;28;20145;-67
2022/10/07 06:28:47;;;;;;;3.78;1.20;;;8.30;99.90;;;;;;5027101;28;20440;-68
2022/10/07 06:31:23;;;;;;;3.40;1.30;;;8.20;99.90;;;;;;5012181;28;20041;-68
2022/10/07 06:33:50;;;;;;;2.10;1.23;;;8.20;99.90;;;;;;4994690;28;20481;-68
2022/10/07 06:36:17;;;;;;;7.25;1.20;;;8.30;99.90;;;;;;5010667;28;20026;-69
2022/10/07 06:38:45;;;;;;;3.28;1.60;;;8.30;99.90;;;;;;5010692;28;20038;-68
2022/10/07 06:41:11;;;;;;;4.25;1.50;;;8.40;99.90;;;;;;5012070;28;20022;-69
2022/10/07 06:43:36;;;;;;;4.32;1.33;;;8.50;99.90;;;;;;5010254;28;20026;-69
2022/10/07 06:46:06;;;;;;;10.60;1.50;;;8.50;99.90;;;;;;5011474;28;20640;-69
2022/10/07 06:48:33;;;;;;;3.67;1.88;;;8.60;99.90;;;;;;5011804;28;20095;-69
2022/10/07 06:51:02;;;;;;;6.93;2.15;;;8.60;99.90;;;;;;5010178;28;20069;-69
2022/10/07 06:53:28;;;;;;;2.72;1.88;;;8.60;99.90;;;;;;5011272;28;20030;-69
2022/10/07 06:55:56;;;;;;;5.40;1.60;;;8.70;99.90;;;;;;5010039;28;20060;-69
2022/10/07 06:58:23;;;;;;;4.20;1.60;;;8.70;99.90;;;;;;5011714;28;20072;-69
2022/10/07 07:00:50;;;;;;;4.28;1.58;;;8.80;99.90;;;;;;5026852;28;20026;-68
2022/10/07 07:03:17;;;;;;;3.65;1.80;;;8.80;99.90;;;;;;5010070;28;20033;-69
2022/10/07 07:05:43;;;;;;;1.70;0.77;;;9.00;99.90;;;;;;5026545;28;20390;-69
2022/10/07 07:08:10;;;;;;;3.08;1.63;;;9.10;99.90;;;;;;5010206;28;20477;-67
2022/10/07 07:10:40;;;;;;;4.28;2.50;;;9.20;99.90;;;;;;4994153;28;20497;-67
2022/10/07 07:13:06;;;;;;;4.63;1.83;;;9.30;99.90;;;;;;5009676;28;20548;-67
2022/10/07 07:15:33;;;;;;;10.70;1.70;;;9.40;99.90;;;;;;5010395;28;20029;-67
2022/10/07 07:17:59;;;;;;;20.17;2.47;;;9.50;99.90;;;;;;5009880;28;20029;-68
2022/10/07 07:20:25;;;;;;;5.05;2.38;;;9.50;99.90;;;;;;5010968;28;20037;-68
2022/10/07 07:22:51;;;;;;;4.68;1.70;;;9.60;99.90;;;;;;5011000;28;20066;-68
2022/10/07 07:25:20;;;;;;;6.43;2.10;;;9.70;99.90;;;;;;5010649;28;20029;-68
2022/10/07 07:27:46;;;;;;;9.15;2.75;;;9.70;99.90;;;;;;5009794;28;20052;-68
2022/10/07 07:30:14;;;;;;;11.25;2.47;;;9.70;99.90;;;;;;5010756;28;20466;-69
2022/10/07 07:32:40;;;;;;;3.10;1.92;;;9.80;99.90;;;;;;5010164;28;20037;-68
2022/10/07 07:35:06;;;;;;;2.55;1.20;;;9.80;99.90;;;;;;5010674;28;20026;-67
2022/10/07 07:37:32;;;;;;;3.97;1.20;;;9.70;99.90;;;;;;5010864;28;20252;-68
2022/10/07 07:39:59;;;;;;;2.40;1.50;;;9.70;99.90;;;;;;5010686;28;20033;-67
2022/10/07 07:42:27;;;;;;;4.80;1.58;;;9.70;99.90;;;;;;4992897;28;20048;-68
2022/10/07 07:44:54;;;;;;;2.70;1.20;;;9.80;99.90;;;;;;5022524;23;20018;-72
2022/10/07 07:47:20;;;;;;;6.18;1.60;;;9.70;99.90;;;;;;5001758;28;20046;-72
2022/10/07 07:49:48;;;;;;;9.23;1.75;;;9.80;99.90;;;;;;5006085;28;20034;-71
2022/10/07 07:52:14;;;;;;;3.53;1.08;;;9.90;99.90;;;;;;4989732;28;20030;-69
2022/10/07 07:54:40;;;;;;;9.15;2.10;;;10.00;99.90;;;;;;4989363;28;20094;-70
2022/10/07 07:57:07;;;;;;;4.18;2.22;;;10.10;99.90;;;;;;4991068;28;20048;-70
2022/10/07 07:59:33;;;;;;;3.65;1.50;;;10.00;99.90;;;;;;4989553;28;20022;-71
2022/10/07 08:01:59;;;;;;;3.63;1.67;;;10.10;99.90;;;;;;4989210;28;20026;-71
2022/10/07 08:04:25;;;;;;;4.47;1.58;;;10.20;99.90;;;;;;4988875;28;20031;-72
2022/10/07 08:06:51;;;;;;;5.40;1.77;;;10.20;99.90;;;;;;4990288;28;20032;-71
2022/10/07 08:09:17;;;;;;;3.15;1.38;;;10.20;99.90;;;;;;4991242;28;20027;-71
2022/10/07 08:11:44;;;;;;;5.43;2.15;;;10.30;99.90;;;;;;4989544;28;20023;-71
2022/10/07 08:14:12;;;;;;;4.32;1.58;;;10.40;99.90;;;;;;4988602;28;20120;-71
2022/10/07 08:16:38;;;;;;;10.52;2.20;;;10.50;99.90;;;;;;4990147;28;20030;-72
2022/10/07 08:19:04;;;;;;;7.25;1.60;;;10.40;99.90;;;;;;4990548;28;20038;-71
2022/10/07 08:21:33;;;;;;;3.63;1.42;;;10.60;99.90;;;;;;4989701;28;20069;-70
2022/10/07 08:24:03;;;;;;;4.72;1.98;;;10.60;99.90;;;;;;4988516;28;20118;-71
2022/10/07 08:26:31;;;;;;;5.35;2.78;;;10.70;99.90;;;;;;4992723;28;20770;-71
2022/10/07 08:28:58;;;;;;;5.13;1.98;;;10.90;99.90;;;;;;4994273;28;20042;-71
2022/10/07 08:31:28;;;;;;;5.85;1.67;;;11.00;99.90;;;;;;4993313;28;20022;-71
2022/10/07 08:33:58;;;;;;;5.32;1.83;;;11.10;99.90;;;;;;4992654;28;20570;-70
2022/10/07 08:36:26;;;;;;;8.80;1.70;;;11.20;99.90;;;;;;4994096;28;20038;-70
2022/10/07 08:38:52;;;;;;;3.10;1.52;;;11.20;99.90;;;;;;4994369;28;20107;-70
2022/10/07 08:41:33;;;;;;;6.80;1.98;;;11.30;99.90;;;;;;4993060;28;20048;-70
2022/10/07 08:44:25;;;;;;;4.47;2.28;;;11.50;99.90;;;;;;4993538;28;20114;-70
2022/10/07 08:47:27;;;;;;;5.38;1.80;;;11.50;99.90;;;;;;4992539;28;20443;-70
2022/10/07 08:50:33;;;;;;;4.40;1.30;;;11.80;99.90;;;;;;4994352;28;20041;-69
2022/10/07 08:53:05;;;;;;;5.55;2.03;;;11.80;99.90;;;;;;4991893;28;20493;-70
2022/10/07 08:55:51;;;;;;;3.65;1.67;;;11.90;99.90;;;;;;4993181;28;20027;-69
2022/10/07 08:58:42;;;;;;;3.35;1.65;;;12.00;99.90;;;;;;4993924;28;20026;-70
2022/10/07 09:01:23;;;;;;;4.53;1.73;;;12.20;99.90;;;;;;4994221;28;20030;-70
2022/10/07 09:04:28;;;;;;;2.85;1.52;;;12.20;99.90;;;;;;4992150;28;20041;-71
2022/10/07 09:07:17;;;;;;;8.40;1.50;;;12.30;99.90;;;;;;4992847;28;20030;-73
2022/10/07 09:09:56;;;;;;;8.13;1.60;;;12.60;99.90;;;;;;4993964;28;20470;-70
2022/10/07 09:12:33;;;;;;;2.03;1.17;;;12.60;99.90;;;;;;4976148;28;20038;-71
2022/10/07 09:15:02;;;;;;;8.63;1.90;;;12.50;99.90;;;;;;4993517;28;20038;-69
2022/10/07 09:17:41;;;;;;;11.82;2.30;;;12.70;99.90;;;;;;4976086;28;20034;-70
2022/10/07 09:20:19;;;;;;;10.38;1.60;;;12.90;99.90;;;;;;4992655;28;20105;-69
2022/10/07 09:22:56;;;;;;;6.25;1.33;;;13.10;99.90;;;;;;4992822;28;20533;-69
2022/10/07 09:25:26;;;;;;;3.63;1.65;;;13.30;99.90;;;;;;4992330;28;20022;-70
2022/10/07 09:27:53;;;;;;;2.63;1.50;;;13.50;99.90;;;;;;4993308;28;20134;-70
2022/10/07 09:30:21;;;;;;;16.45;4.85;;;13.80;99.90;;;;;;4993201;28;20516;-71
2022/10/07 09:32:53;;;;;;;7.72;2.40;;;14.00;99.90;;;;;;4991487;28;20413;-71
2022/10/07 09:35:25;;;;;;;6.05;2.08;;;13.50;99.90;;;;;;4991958;28;20026;-71
2022/10/07 09:38:07;;;;;;;3.10;1.35;;;13.70;99.90;;;;;;4992463;28;20457;-70
2022/10/07 09:43:33;;;;;;;3.67;2.00;;;14.20;99.90;;;;;;4990911;28;20030;-72
2022/10/07 09:46:00;;;;;;;8.77;1.95;;;14.00;99.90;;;;;;4991730;28;20121;-69
2022/10/07 09:48:32;;;;;;;4.13;1.58;;;14.30;99.90;;;;;;4993224;28;20394;-71
2022/10/07 09:51:23;;;;;;;3.47;1.48;;;14.40;99.90;;;;;;4992088;28;20064;-71
2022/10/07 09:54:05;;;;;;;3.50;1.33;;;14.00;99.90;;;;;;4991135;28;20026;-71
2022/10/07 09:56:42;;;;;;;9.75;1.90;;;14.40;99.90;;;;;;4992745;28;20038;-71
2022/10/07 09:59:21;;;;;;;5.65;1.80;;;14.50;99.90;;;;;;4992698;28;20112;-73
2022/10/07 10:02:18;;;;;;;3.95;1.75;;;14.80;99.90;;;;;;4993090;28;20049;-71
2022/10/07 10:04:49;;;;;;;3.30;1.00;;;15.00;99.90;;;;;;4991652;28;20092;-72
2022/10/07 10:07:27;;;;;;;7.28;1.73;;;15.00;99.90;;;;;;4992711;28;20117;-71
2022/10/07 10:09:58;;;;;;;5.50;1.63;;;14.30;99.90;;;;;;4991361;28;20030;-71
2022/10/07 10:12:25;;;;;;;5.15;1.80;;;14.70;99.90;;;;;;4990731;28;20092;-70
2022/10/07 10:15:13;;;;;;;7.28;1.30;;;15.10;99.90;;;;;;4991152;28;20030;-72
2022/10/07 10:17:39;;;;;;;2.58;0.80;;;15.50;99.90;;;;;;4991458;28;20061;-71
2022/10/07 10:20:28;;;;;;;3.50;1.50;;;15.10;99.90;;;;;;4991276;28;20030;-70
2022/10/07 10:22:55;;;;;;;2.72;1.20;;;16.00;99.90;;;;;;4990685;28;20072;-72
2022/10/07 10:28:49;;;;;;;12.75;1.83;;;15.80;99.90;;;;;;4983808;28;20038;-72
2022/10/07 10:31:54;;;;;;;6.07;1.53;;;15.70;99.90;;;;;;4975912;28;20033;-71
2022/10/07 10:34:49;;;;;;;3.50;1.40;;;15.40;99.90;;;;;;4975462;28;20813;-72
2022/10/07 10:37:30;;;;;;;13.27;4.07;;;15.30;99.90;;;;;;4991114;28;20084;-71
2022/10/07 10:40:18;;;;;;;;;;;15.90;99.90;;;;;;4992600;28;20030;-71
2022/10/07 10:43:23;;;;;;;10.68;2.38;;;16.10;99.90;;;;;;4990779;28;20332;-72
2022/10/07 10:46:35;;;;;;;1.52;0.93;;;15.90;99.90;;;;;;4991733;28;20065;-72
2022/10/07 10:49:28;;;;;;;7.03;1.25;;;15.90;99.90;;;;;;4992226;28;20077;-72
2022/10/07 10:52:16;;;;;;;9.68;1.77;;;16.10;99.90;;;;;;4991999;28;20030;-72
2022/10/07 10:55:26;;;;;;;9.27;1.38;;;16.90;99.90;;;;;;4991691;28;20026;-72
2022/10/07 10:58:00;;;;;;;7.68;1.15;;;17.80;99.90;;;;;;5000608;28;20045;-72
2022/10/07 11:00:54;;;;;;;12.73;2.15;;;18.20;99.90;;;;;;4990338;28;20030;-73
2022/10/07 11:03:47;;;;;;;20.50;2.13;;;17.80;99.90;;;;;;4985374;28;20093;-73
2022/10/07 11:06:17;;;;;;;9.65;1.65;;;17.20;99.90;;;;;;4991895;28;20085;-75
2022/10/07 11:08:43;;;;;;;11.93;4.32;;;17.90;99.90;;;;;;4990510;28;20049;-73
2022/10/07 11:11:16;;;;;;;7.07;1.75;;;18.10;99.90;;;;;;4990610;28;20034;-73
2022/10/07 11:14:06;;;;;;;5.18;1.83;;;18.10;99.90;;;;;;4989662;28;20081;-72
2022/10/07 11:16:48;;;;;;;13.55;1.77;;;18.10;99.90;;;;;;4976402;28;20104;-73
2022/10/07 11:19:29;;;;;;;9.02;1.75;;;19.80;99.60;;;;;;4991522;28;20053;-72
2022/10/07 11:22:01;;;;;;;8.73;1.77;;;19.10;98.80;;;;;;4990344;28;20038;-72
2022/10/07 11:24:42;;;;;;;5.80;1.42;;;19.00;99.90;;;;;;4989536;28;20031;-73
2022/10/07 11:27:27;;;;;;;4.82;1.13;;;19.20;99.90;;;;;;4991468;28;20394;-72
2022/10/07 11:30:20;;;;;;;8.63;1.45;;;19.70;97.80;;;;;;4973820;28;20025;-73
2022/10/07 11:33:00;;;;;;;5.15;1.70;;;19.60;97.70;;;;;;4989431;28;20056;-73
2022/10/07 11:35:42;;;;;;;4.95;1.48;;;18.50;99.70;;;;;;4989880;28;20121;-73
2022/10/07 11:38:14;;;;;;;7.85;1.70;;;18.60;99.90;;;;;;4990687;28;20031;-73
2022/10/07 11:40:48;;;;;;;12.25;1.55;;;20.80;97.90;;;;;;4971859;28;20067;-73
2022/10/07 11:43:46;;;;;;;12.27;1.70;;;20.30;96.90;;;;;;4969731;28;20117;-72
2022/10/07 11:46:39;;;;;;;4.97;1.27;;;20.40;96.40;;;;;;4970034;28;20041;-73
2022/10/07 11:49:30;;;;;;;6.32;1.80;;;21.10;95.50;;;;;;4970524;28;20168;-73
2022/10/07 11:52:08;;;;;;;6.82;1.30;;;20.60;95.60;;;;;;4971843;28;20026;-73
2022/10/07 11:54:52;;;;;;;11.40;4.75;;;20.60;96.90;;;;;;4969673;28;20039;-73
2022/10/07 11:57:25;;;;;;;9.05;1.50;;;20.30;96.70;;;;;;4970484;28;20058;-73
2022/10/07 12:00:06;;;;;;;6.63;1.58;;;19.00;99.60;;;;;;4984074;28;20073;-72
2022/10/07 12:02:44;;;;;;;4.93;1.13;;;20.30;96.90;;;;;;4979439;28;20105;-72
2022/10/07 12:05:35;;;;;;;13.32;1.42;;;21.00;95.80;;;;;;4990665;28;20113;-73
2022/10/07 12:08:20;;;;;;;5.07;1.48;;;20.80;96.20;;;;;;4990399;28;20043;-73
2022/10/07 12:10:52;;;;;;;6.97;1.85;;;20.40;97.40;;;;;;4989835;28;20026;-73
2022/10/07 12:13:19;;;;;;;9.07;1.67;;;22.50;95.20;;;;;;4989144;28;20034;-73
2022/10/07 12:15:47;;;;;;;8.95;1.70;;;21.50;95.10;;;;;;4990524;28;20026;-72
2022/10/07 12:18:18;;;;;;;8.27;1.58;;;21.50;95.70;;;;;;4990830;28;20034;-72
2022/10/07 12:20:50;;;;;;;13.50;2.08;;;21.80;94.80;;;;;;4991220;28;20042;-73
2022/10/07 12:23:19;;;;;;;3.15;1.10;;;22.40;94.90;;;;;;4989885;28;20117;-73
2022/10/07 12:25:51;;;;;;;8.02;1.67;;;21.20;96.20;;;;;;4989363;28;20217;-71
2022/10/07 12:28:44;;;;;;;6.55;1.45;;;23.40;93.60;;;;;;4990434;28;20038;-72
2022/10/07 12:31:20;;;;;;;2.72;1.10;;;25.20;91.80;;;;;;4990794;28;20118;-70
2022/10/07 12:33:46;;;;;;;10.05;1.58;;;22.00;93.60;;;;;;4989974;28;20042;-70
2022/10/07 12:36:19;;;;;;;8.65;1.38;;;21.40;95.00;;;;;;4990738;28;20034;-71
2022/10/07 12:39:11;;;;;;;14.85;1.67;;;22.50;93.80;;;;;;4990853;28;20129;-71
2022/10/07 12:41:41;;;;;;;2.65;1.42;;;22.70;93.00;;;;;;4990445;28;20030;-71
2022/10/07 12:44:07;;;;;;;5.93;1.60;;;21.90;94.90;;;;;;4989829;28;20037;-67
2022/10/07 12:46:36;;;;;;;5.07;1.60;;;22.20;93.90;;;;;;4990315;28;20034;-67
2022/10/07 12:49:24;;;;;;;5.03;1.30;;;22.80;94.00;;;;;;4990534;28;20038;-67
2022/10/07 12:51:53;;;;;;;14.85;1.85;;;21.90;94.50;;;;;;4988769;28;20026;-68
2022/10/07 12:54:32;;;;;;;5.35;1.55;;;21.40;96.10;;;;;;4989826;28;20042;-68
2022/10/07 12:57:01;;;;;;;9.90;1.50;;;23.10;94.70;;;;;;4990317;28;20113;-68
2022/10/07 12:59:57;;;;;;;10.82;2.42;;;21.80;95.30;;;;;;4989200;28;20126;-68
2022/10/07 13:03:20;;;;;;;9.20;1.65;;;22.20;95.40;;;;;;4989142;28;20402;-69
2022/10/07 13:06:41;;;;;;;2.45;1.05;;;20.80;96.70;;;;;;4989802;28;20034;-59
2022/10/07 13:09:31;;;;;;;8.88;1.98;;;23.80;93.90;;;;;;4988708;28;20026;-59
2022/10/07 13:12:53;;;;;;;7.30;1.40;;;21.90;95.30;;;;;;4990386;28;20045;-59
2022/10/07 13:15:43;;;;;;;11.90;1.77;;;23.00;93.90;;;;;;5000389;28;20050;-60
2022/10/07 13:18:20;;;;;;;8.52;1.98;;;22.70;95.70;;;;;;4993683;28;20050;-59
2022/10/07 13:21:04;;;;;;;5.82;1.67;;;23.60;93.60;;;;;;4992245;28;20042;-60
2022/10/07 13:23:30;;;;;;;9.00;1.85;;;23.10;94.10;;;;;;4991434;28;20105;-59
2022/10/07 13:26:00;;;;;;;5.50;2.25;;;22.60;95.10;;;;;;4992173;28;20042;-59
2022/10/07 13:28:37;;;;;;;9.07;2.05;;;23.20;95.00;;;;;;4991152;28;20109;-59
2022/10/07 13:31:30;;;;;;;10.27;1.60;;;22.70;94.30;;;;;;4972452;28;20031;-58
2022/10/07 13:33:58;;;;;;;15.75;2.22;;;23.80;94.00;;;;;;4970896;28;20053;-59
2022/10/07 13:36:31;;;;;;;8.48;1.88;;;23.60;94.30;;;;;;4989277;28;20549;-59
2022/10/07 13:39:21;;;;;;;3.33;1.73;;;23.10;94.70;;;;;;5005010;28;20041;-59
2022/10/07 13:41:55;;;;;;;4.18;1.80;;;22.50;95.30;;;;;;4991709;28;20351;-60